Time;durP1;ratioP1;P1;durP2;ratioP2;P2;SDS_P1;SDS_P2;PMS_P1;PMS_P2;Temp;Humidity;BMP_temperature;BMP_pressure;BME280_temperature;BME280_humidity;BME280_pressure;Samples;Min_cycle;Max_cycle;Signal;HPM_P1;HPM_P2
2021/12/25 00:01:19;;;;;;;2.97;1.07;;;;;;;-4.01;83.09;100549.84;5028048;28;20408;-58
2021/12/25 00:03:46;;;;;;;1.27;1.17;;;;;;;-3.93;82.96;100547.69;5020301;28;20325;-57
2021/12/25 00:06:12;;;;;;;2.83;1.80;;;;;;;-3.94;83.09;100546.81;5027950;28;20615;-58
2021/12/25 00:08:38;;;;;;;2.67;0.97;;;;;;;-3.98;82.92;100554.25;5027868;28;20258;-59
2021/12/25 00:11:08;;;;;;;1.17;1.10;;;;;;;-4.08;82.56;100550.31;5028150;28;20317;-58
2021/12/25 00:13:34;;;;;;;1.77;0.97;;;;;;;-4.15;83.22;100550.78;5028434;28;20241;-57
2021/12/25 00:16:01;;;;;;;1.10;1.10;;;;;;;-4.16;83.90;100549.03;5027007;28;20261;-57
2021/12/25 00:18:28;;;;;;;1.57;1.10;;;;;;;-4.23;84.13;100560.63;5028595;28;20230;-59
2021/12/25 00:20:54;;;;;;;1.40;1.30;;;;;;;-4.29;84.87;100560.25;5029025;28;20233;-58
2021/12/25 00:23:21;;;;;;;1.70;1.20;;;;;;;-4.27;85.22;100555.25;5023674;28;20324;-57
2021/12/25 00:25:48;;;;;;;1.93;1.83;;;;;;;-4.18;84.19;100565.97;5027267;28;20265;-58
2021/12/25 00:28:48;;;;;;;2.93;1.47;;;;;;;-4.18;84.04;100571.13;5027838;28;20239;-58
2021/12/25 00:31:21;;;;;;;2.27;1.50;;;;;;;-4.16;84.11;100569.53;5020560;28;20227;-56
2021/12/25 00:33:55;;;;;;;1.93;1.00;;;;;;;-4.25;83.62;100572.44;5027980;28;20328;-58
2021/12/25 00:36:23;;;;;;;1.30;1.20;;;;;;;-4.26;85.04;100574.94;5026941;28;20294;-57
2021/12/25 00:38:51;;;;;;;1.47;1.33;;;;;;;-4.27;85.34;100575.75;5021962;28;20268;-58
2021/12/25 00:41:19;;;;;;;2.03;1.37;;;;;;;-4.33;85.87;100586.53;5027644;28;20281;-59
2021/12/25 00:43:47;;;;;;;1.80;1.20;;;;;;;-4.34;86.27;100589.91;5027968;28;20262;-58
2021/12/25 00:46:14;;;;;;;1.93;1.37;;;;;;;-4.29;86.07;100592.69;5027214;28;20237;-57
2021/12/25 00:48:40;;;;;;;2.70;1.50;;;;;;;-4.17;85.24;100590.84;5026870;28;20238;-57
2021/12/25 00:51:07;;;;;;;4.57;1.43;;;;;;;-4.30;86.26;100596.94;5026918;28;20335;-57
2021/12/25 00:53:34;;;;;;;2.20;1.40;;;;;;;-4.28;85.50;100600.50;5026923;28;20329;-58
2021/12/25 00:56:00;;;;;;;1.50;1.10;;;;;;;-4.30;86.19;100602.06;5027113;28;20243;-59
2021/12/25 00:58:26;;;;;;;2.53;1.97;;;;;;;-4.33;86.70;100607.91;5027365;28;20785;-57
2021/12/25 01:00:54;;;;;;;1.83;1.57;;;;;;;-4.44;87.14;100613.22;5019306;28;20261;-56
2021/12/25 01:03:20;;;;;;;3.20;2.00;;;;;;;-4.50;88.14;100618.88;5025707;28;20262;-54
2021/12/25 01:05:47;;;;;;;4.47;2.90;;;;;;;-4.49;88.58;100610.41;5026100;28;20230;-55
2021/12/25 01:08:13;;;;;;;3.83;3.30;;;;;;;-4.51;88.27;100619.69;5026221;28;20644;-58
2021/12/25 01:10:39;;;;;;;6.40;3.53;;;;;;;-4.51;89.18;100627.38;5028119;28;20280;-55
2021/12/25 01:13:10;;;;;;;9.10;3.80;;;;;;;-4.45;88.48;100627.72;5026705;28;20796;-54
2021/12/25 01:15:47;;;;;;;5.87;3.00;;;;;;;-4.44;88.39;100633.72;5027293;28;20250;-56
2021/12/25 01:18:52;;;;;;;6.20;2.70;;;;;;;-4.50;88.10;100634.25;5026303;28;20235;-56
2021/12/25 01:29:45;;;;;;;2.70;1.63;;;;;;;-4.49;88.26;100646.28;5026248;28;20235;-56
2021/12/25 01:38:04;;;;;;;2.93;1.70;;;;;;;-4.60;88.56;100649.88;4964867;28;20240;-57
2021/12/25 01:40:50;;;;;;;1.13;1.03;;;;;;;-4.73;89.72;100648.31;5016550;28;20837;-55
2021/12/25 01:48:45;;;;;;;2.60;1.97;;;;;;;-4.70;89.17;100665.50;5026921;28;20234;-56
2021/12/25 01:51:13;;;;;;;4.97;2.40;;;;;;;-4.72;89.40;100659.44;5027097;28;20239;-55
2021/12/25 01:53:39;;;;;;;3.77;2.73;;;;;;;-4.74;89.20;100663.56;5027786;28;20264;-56
2021/12/25 01:56:06;;;;;;;2.57;2.27;;;;;;;-4.71;89.18;100668.88;5028704;28;20238;-55
2021/12/25 01:58:34;;;;;;;5.47;4.00;;;;;;;-4.66;88.96;100672.59;5030667;28;20288;-57
2021/12/25 02:01:03;;;;;;;6.67;3.70;;;;;;;-4.70;89.06;100670.63;5033787;28;20699;-55
2021/12/25 02:03:31;;;;;;;5.70;3.27;;;;;;;-4.72;89.00;100668.00;5036262;28;20274;-55
2021/12/25 02:05:58;;;;;;;6.17;3.73;;;;;;;-4.78;89.78;100676.97;5039728;28;20258;-56
2021/12/25 02:08:26;;;;;;;4.10;2.80;;;;;;;-4.80;90.10;100685.47;5039524;28;20290;-56
2021/12/25 02:10:53;;;;;;;4.67;3.00;;;;;;;-4.79;90.30;100688.91;5039260;28;20241;-57
2021/12/25 02:13:20;;;;;;;2.70;2.47;;;;;;;-4.83;90.72;100686.97;5034793;28;20234;-55
2021/12/25 02:15:49;;;;;;;3.13;2.60;;;;;;;-4.84;91.32;100693.75;5033101;28;20261;-56
2021/12/25 02:18:23;;;;;;;4.20;3.40;;;;;;;-4.88;91.35;100686.69;5031392;28;20236;-55
2021/12/25 02:20:56;;;;;;;7.27;5.57;;;;;;;-4.94;92.37;100690.56;5033235;28;20223;-56
2021/12/25 02:23:24;;;;;;;10.47;5.37;;;;;;;-4.97;92.32;100695.50;5027954;28;20265;-58
2021/12/25 02:25:54;;;;;;;9.20;5.00;;;;;;;-5.04;93.46;100704.47;5027308;28;20246;-55
2021/12/25 02:28:21;;;;;;;12.73;6.47;;;;;;;-5.06;93.83;100698.38;5025270;28;20729;-56
2021/12/25 02:30:49;;;;;;;10.00;7.13;;;;;;;-5.08;94.41;100707.66;5025528;28;20235;-56
2021/12/25 02:33:16;;;;;;;11.27;7.17;;;;;;;-5.11;94.86;100703.22;5024709;28;20278;-58
2021/12/25 02:35:43;;;;;;;9.37;5.73;;;;;;;-5.11;95.16;100703.22;5025090;28;20234;-57
2021/12/25 02:38:11;;;;;;;9.07;4.77;;;;;;;-5.07;95.33;100717.09;5024485;28;20618;-57
2021/12/25 02:40:37;;;;;;;6.30;2.80;;;;;;;-5.05;94.04;100707.84;5025107;28;20621;-54
2021/12/25 02:43:03;;;;;;;2.60;2.00;;;;;;;-5.07;93.86;100723.09;5024537;28;20418;-58
2021/12/25 02:45:30;;;;;;;2.87;1.73;;;;;;;-5.04;93.84;100718.16;5025351;28;20300;-58
2021/12/25 02:47:57;;;;;;;2.57;1.60;;;;;;;-5.05;93.18;100718.97;5024659;28;20281;-57
2021/12/25 02:50:25;;;;;;;3.43;1.90;;;;;;;-5.04;93.08;100724.97;5024830;28;20234;-56
2021/12/25 02:52:52;;;;;;;1.37;1.20;;;;;;;-5.02;93.00;100720.78;5024130;28;20257;-56
2021/12/25 02:55:20;;;;;;;2.23;2.00;;;;;;;-4.94;92.17;100727.28;5023762;28;20249;-57
2021/12/25 02:57:50;;;;;;;2.97;1.70;;;;;;;-4.97;92.39;100728.78;5024810;28;20400;-56
2021/12/25 03:00:17;;;;;;;3.67;2.60;;;;;;;-4.95;92.28;100724.63;5024815;28;20253;-56
2021/12/25 03:02:44;;;;;;;2.23;2.03;;;;;;;-4.93;92.50;100734.16;5024318;28;20701;-55
2021/12/25 03:05:10;;;;;;;2.97;2.40;;;;;;;-4.98;92.59;100734.66;5024283;28;20284;-56
2021/12/25 03:07:36;;;;;;;5.33;2.70;;;;;;;-4.97;92.77;100731.34;5024897;28;20293;-56
2021/12/25 03:10:05;;;;;;;4.93;2.10;;;;;;;-5.03;91.83;100727.59;5023767;28;20267;-62
2021/12/25 03:12:37;;;;;;;1.63;1.27;;;;;;;-5.04;92.69;100735.19;5024541;28;20652;-55
2021/12/25 03:15:12;;;;;;;1.97;1.43;;;;;;;-5.16;92.70;100730.22;5023985;28;20234;-56
2021/12/25 03:17:38;;;;;;;3.63;1.30;;;;;;;-5.14;94.16;100743.09;5024072;28;20654;-57
2021/12/25 03:20:06;;;;;;;4.57;1.67;;;;;;;-5.17;93.76;100740.34;5024617;28;20362;-57
2021/12/25 03:22:32;;;;;;;2.90;2.00;;;;;;;-5.18;94.64;100738.59;5026296;28;20288;-57
2021/12/25 03:24:59;;;;;;;2.50;1.40;;;;;;;-5.21;94.29;100740.94;5023798;28;20655;-56
2021/12/25 03:27:25;;;;;;;1.97;1.40;;;;;;;-5.18;94.22;100741.16;5024250;28;20265;-58
2021/12/25 03:29:53;;;;;;;1.90;1.40;;;;;;;-5.20;93.83;100752.94;5026880;28;20279;-57
2021/12/25 03:32:19;;;;;;;2.53;1.40;;;;;;;-5.22;94.32;100754.53;5027337;28;20261;-55
2021/12/25 03:34:46;;;;;;;1.67;1.57;;;;;;;-5.24;95.00;100751.00;5028597;28;20238;-56
2021/12/25 03:37:12;;;;;;;1.90;1.57;;;;;;;-5.27;94.84;100759.34;5028204;28;20269;-57
2021/12/25 03:39:38;;;;;;;1.60;1.13;;;;;;;-5.29;95.25;100764.38;5028183;28;20267;-56
2021/12/25 03:42:05;;;;;;;1.40;1.30;;;;;;;-5.29;94.96;100760.94;5027969;28;20277;-56
2021/12/25 03:44:33;;;;;;;2.07;1.00;;;;;;;-5.28;94.89;100760.16;5029239;28;20290;-57
2021/12/25 03:47:10;;;;;;;1.60;1.27;;;;;;;-5.31;95.03;100760.84;5027789;28;20738;-55
2021/12/25 03:53:08;;;;;;;1.30;1.20;;;;;;;-5.30;94.48;100757.50;5027902;28;20229;-57
2021/12/25 03:58:03;;;;;;;1.50;1.07;;;;;;;-5.32;93.85;100766.75;5020927;28;20296;-57
2021/12/25 04:00:31;;;;;;;0.83;0.83;;;;;;;-5.30;93.91;100767.75;5027907;28;20683;-56
2021/12/25 04:03:04;;;;;;;0.87;0.87;;;;;;;-5.32;93.09;100771.88;5027490;28;20231;-56
2021/12/25 04:05:33;;;;;;;0.70;0.70;;;;;;;-5.31;93.62;100767.63;5027641;28;20240;-58
2021/12/25 04:08:04;;;;;;;1.20;1.07;;;;;;;-5.32;93.51;100774.44;5028391;28;20700;-57
2021/12/25 04:10:34;;;;;;;1.73;1.27;;;;;;;-5.30;93.88;100772.88;5028242;28;20309;-56
2021/12/25 04:13:00;;;;;;;1.83;1.20;;;;;;;-5.28;93.61;100770.38;5028050;28;20237;-57
2021/12/25 04:15:27;;;;;;;1.40;1.20;;;;;;;-5.23;93.32;100768.09;5027499;28;20315;-58
2021/12/25 04:17:53;;;;;;;1.57;1.43;;;;;;;-5.25;92.97;100780.81;5027271;28;20272;-58
2021/12/25 04:20:22;;;;;;;1.30;1.20;;;;;;;-5.28;93.24;100780.63;5028505;28;20238;-57
2021/12/25 04:22:54;;;;;;;2.37;1.00;;;;;;;-5.29;93.15;100789.09;5027386;28;20242;-56
2021/12/25 04:25:26;;;;;;;1.33;1.27;;;;;;;-5.27;92.70;100785.81;5023176;28;20284;-57
2021/12/25 04:27:52;;;;;;;1.70;1.60;;;;;;;-5.24;92.55;100782.56;5028689;28;20593;-59
2021/12/25 04:30:28;;;;;;;1.80;1.70;;;;;;;-5.25;92.88;100782.50;5027344;28;20239;-56
2021/12/25 04:33:27;;;;;;;1.70;1.10;;;;;;;-5.26;92.81;100786.72;5023715;28;20238;-56
2021/12/25 05:03:32;;;;;;;1.27;1.17;;;;;;;-5.59;92.82;100799.13;5021701;28;20614;-58
2021/12/25 05:06:00;;;;;;;5.90;1.80;;;;;;;-5.64;93.27;100792.84;5019527;28;20324;-56
2021/12/25 05:08:27;;;;;;;3.43;2.40;;;;;;;-5.59;92.81;100798.25;5026387;28;20230;-56
2021/12/25 05:10:54;;;;;;;6.87;3.33;;;;;;;-5.64;92.85;100789.41;5019023;28;20581;-54
2021/12/25 05:13:21;;;;;;;8.63;4.00;;;;;;;-5.69;93.41;100788.22;5026352;28;22593;-55
2021/12/25 05:15:47;;;;;;;5.73;4.27;;;;;;;-5.77;94.17;100793.72;5026329;28;20344;-58
2021/12/25 05:18:14;;;;;;;6.03;4.17;;;;;;;-5.86;95.00;100793.13;5025390;28;20314;-53
2021/12/25 05:20:40;;;;;;;3.27;2.17;;;;;;;-5.84;95.78;100796.66;5030585;28;20290;-57
2021/12/25 05:23:07;;;;;;;7.17;2.93;;;;;;;-5.84;95.66;100799.22;5031222;28;20237;-57
2021/12/25 05:25:35;;;;;;;4.43;2.57;;;;;;;-5.86;96.18;100808.47;5026267;28;20262;-59
2021/12/25 05:28:02;;;;;;;6.83;3.23;;;;;;;-5.93;96.54;100803.78;5026557;28;20293;-58
2021/12/25 05:30:29;;;;;;;3.73;2.53;;;;;;;-6.02;97.36;100808.28;5026835;28;20769;-57
2021/12/25 05:32:55;;;;;;;5.87;2.90;;;;;;;-5.99;98.15;100811.03;5026905;28;20249;-56
2021/12/25 05:35:22;;;;;;;4.47;3.17;;;;;;;-6.03;98.76;100815.06;5026233;28;20266;-57
2021/12/25 05:37:48;;;;;;;7.03;3.13;;;;;;;-6.02;98.92;100815.94;5026744;28;20235;-57
2021/12/25 05:40:15;;;;;;;6.70;3.40;;;;;;;-6.06;99.21;100803.75;5026661;28;20282;-53
2021/12/25 05:42:42;;;;;;;3.50;2.63;;;;;;;-6.05;99.39;100802.97;5027225;28;20288;-54
2021/12/25 05:45:10;;;;;;;5.27;2.90;;;;;;;-6.07;99.54;100807.06;5026514;28;20307;-60
2021/12/25 05:47:37;;;;;;;3.50;2.43;;;;;;;-6.10;99.95;100812.00;5027905;28;20226;-58
2021/12/25 05:50:03;;;;;;;6.40;2.70;;;;;;;-6.04;100.00;100817.50;5026020;28;20235;-58
2021/12/25 05:52:30;;;;;;;4.00;2.43;;;;;;;-6.01;100.00;100818.59;5027121;28;20251;-55
2021/12/25 05:54:56;;;;;;;3.80;2.00;;;;;;;-6.03;100.00;100832.94;5026093;28;20566;-57
2021/12/25 05:57:22;;;;;;;4.23;1.60;;;;;;;-6.10;100.00;100837.56;5025791;28;20240;-58
2021/12/25 05:59:50;;;;;;;2.87;2.23;;;;;;;-6.09;100.00;100844.44;5027002;28;20735;-58
2021/12/25 06:02:16;;;;;;;3.13;2.20;;;;;;;-6.08;100.00;100846.19;5026731;28;20245;-56
2021/12/25 06:04:43;;;;;;;2.30;1.40;;;;;;;-6.07;100.00;100850.50;5025993;28;20257;-57
2021/12/25 06:07:09;;;;;;;3.43;1.87;;;;;;;-6.06;100.00;100829.31;5026051;28;20697;-58
2021/12/25 06:09:35;;;;;;;1.70;1.23;;;;;;;-6.08;100.00;100839.41;5025229;28;20637;-57
2021/12/25 06:12:03;;;;;;;0.93;0.83;;;;;;;-6.07;100.00;100833.53;5026278;28;20743;-57
2021/12/25 06:14:30;;;;;;;0.70;0.70;;;;;;;-6.02;100.00;100846.63;5026152;28;20236;-55
2021/12/25 06:16:57;;;;;;;0.83;0.83;;;;;;;-6.01;100.00;100843.25;5025805;28;20303;-58
2021/12/25 06:19:24;;;;;;;1.23;1.13;;;;;;;-5.94;100.00;100845.44;5026363;28;20266;-58
2021/12/25 06:21:50;;;;;;;1.77;1.30;;;;;;;-5.93;99.34;100844.69;5027427;28;20955;-55
2021/12/25 06:24:16;;;;;;;2.60;1.23;;;;;;;-6.01;98.99;100845.81;5025887;28;20284;-57
2021/12/25 06:26:43;;;;;;;1.80;1.20;;;;;;;-5.99;99.26;100851.06;5025771;28;20240;-58
2021/12/25 06:29:09;;;;;;;0.80;0.80;;;;;;;-5.95;99.44;100842.81;5026011;28;20265;-56
2021/12/25 06:31:37;;;;;;;1.73;0.67;;;;;;;-5.97;99.33;100855.47;5024882;28;20724;-58
2021/12/25 06:34:06;;;;;;;2.10;0.77;;;;;;;-5.93;99.27;100852.34;5025193;28;20255;-56
2021/12/25 06:36:32;;;;;;;2.47;1.03;;;;;;;-5.91;99.12;100858.41;5025529;28;20338;-57
2021/12/25 06:38:59;;;;;;;2.93;0.87;;;;;;;-5.89;98.89;100854.28;5025966;28;20313;-56
2021/12/25 06:41:25;;;;;;;0.77;0.77;;;;;;;-5.88;98.58;100856.03;5025232;28;20246;-59
2021/12/25 06:43:51;;;;;;;1.07;0.80;;;;;;;-5.88;98.96;100858.59;5025393;28;20286;-57
2021/12/25 06:46:18;;;;;;;0.67;0.67;;;;;;;-5.86;98.51;100863.81;5025056;28;20273;-58
2021/12/25 06:48:44;;;;;;;4.67;1.20;;;;;;;-5.87;97.89;100868.03;5024768;28;20240;-59
2021/12/25 06:51:12;;;;;;;0.80;0.80;;;;;;;-5.82;97.75;100865.81;5024949;28;20233;-56
2021/12/25 06:53:38;;;;;;;2.27;1.17;;;;;;;-5.82;97.55;100869.25;5025092;28;20765;-58
2021/12/25 06:56:05;;;;;;;2.90;1.43;;;;;;;-5.82;97.62;100871.81;5024605;28;20294;-58
2021/12/25 06:58:31;;;;;;;1.17;1.00;;;;;;;-5.81;97.45;100872.69;5024983;28;20257;-55
2021/12/25 07:00:58;;;;;;;1.40;1.13;;;;;;;-5.82;98.25;100865.81;5025733;28;20317;-59
2021/12/25 07:03:24;;;;;;;1.53;0.90;;;;;;;-5.83;98.99;100875.13;5023493;28;20238;-57
2021/12/25 07:05:50;;;;;;;2.73;1.40;;;;;;;-5.83;99.16;100884.47;5024740;28;20263;-56
2021/12/25 07:08:18;;;;;;;1.20;1.10;;;;;;;-5.82;99.75;100879.47;5024007;28;20714;-56
2021/12/25 07:10:44;;;;;;;1.13;1.03;;;;;;;-5.78;99.81;100881.44;5024722;28;20754;-57
2021/12/25 07:13:16;;;;;;;1.77;1.40;;;;;;;-5.86;98.96;100890.28;5032970;28;20234;-56
2021/12/25 07:15:42;;;;;;;2.13;1.30;;;;;;;-5.81;99.10;100882.91;5025250;28;20237;-56
2021/12/25 07:18:09;;;;;;;1.37;1.20;;;;;;;-5.92;98.90;100889.88;5025019;28;20238;-58
2021/12/25 07:20:35;;;;;;;1.47;1.00;;;;;;;-5.93;99.07;100902.56;5028323;28;20265;-58
2021/12/25 07:23:01;;;;;;;3.23;1.80;;;;;;;-5.90;99.39;100903.63;5032017;28;20259;-55
2021/12/25 07:25:30;;;;;;;1.63;1.17;;;;;;;-5.90;99.52;100901.06;5025219;28;20260;-58
2021/12/25 07:27:56;;;;;;;1.40;1.10;;;;;;;-5.89;99.93;100900.28;5017855;28;20857;-54
2021/12/25 07:30:22;;;;;;;1.73;1.23;;;;;;;-5.92;99.48;100900.09;5025142;28;20371;-57
2021/12/25 07:32:49;;;;;;;3.20;1.37;;;;;;;-5.93;99.38;100908.59;5023940;28;20665;-59
2021/12/25 07:35:15;;;;;;;2.83;1.43;;;;;;;-5.92;98.95;100904.34;5023276;28;20903;-58
2021/12/25 07:37:41;;;;;;;6.33;1.73;;;;;;;-5.89;99.09;100910.53;5025121;28;20266;-56
2021/12/25 07:40:09;;;;;;;1.97;1.47;;;;;;;-5.87;98.81;100914.06;5023522;28;20326;-58
2021/12/25 07:42:37;;;;;;;2.13;1.87;;;;;;;-5.86;99.12;100912.38;5024881;28;20242;-57
2021/12/25 07:45:06;;;;;;;3.13;2.03;;;;;;;-5.91;99.59;100908.63;5023463;28;20280;-57
2021/12/25 07:47:34;;;;;;;2.47;2.23;;;;;;;-5.87;99.88;100914.06;5024602;28;20249;-56
2021/12/25 07:50:00;;;;;;;2.63;1.33;;;;;;;-5.86;99.81;100910.72;5018226;28;20243;-57
2021/12/25 07:52:27;;;;;;;2.20;1.37;;;;;;;-5.81;98.98;100901.69;5024306;28;20257;-55
2021/12/25 07:54:54;;;;;;;1.87;1.50;;;;;;;-5.78;97.69;100914.69;5021485;28;20238;-57
2021/12/25 07:57:20;;;;;;;1.13;1.03;;;;;;;-5.68;95.77;100910.19;5023602;28;20266;-57
2021/12/25 07:59:48;;;;;;;2.03;1.10;;;;;;;-5.65;95.44;100915.47;5025075;28;20257;-57
2021/12/25 08:02:15;;;;;;;1.50;1.13;;;;;;;-5.64;94.97;100907.94;5024205;28;20296;-56
2021/12/25 08:04:41;;;;;;;2.50;1.83;;;;;;;-5.62;95.05;100916.56;5023127;28;20238;-56
2021/12/25 08:07:07;;;;;;;5.27;1.77;;;;;;;-5.62;95.87;100905.47;5023456;28;20797;-57
2021/12/25 08:09:35;;;;;;;2.63;1.80;;;;;;;-5.63;96.54;100912.25;5023736;28;20238;-57
2021/12/25 08:12:03;;;;;;;4.23;1.40;;;;;;;-5.64;96.54;100913.03;5025244;28;20730;-57
2021/12/25 08:14:30;;;;;;;3.10;1.40;;;;;;;-5.63;95.77;100913.94;5024988;28;20227;-54
2021/12/25 08:17:00;;;;;;;1.73;1.63;;;;;;;-5.58;96.11;100917.66;5026931;28;20776;-56
2021/12/25 08:19:27;;;;;;;3.97;2.13;;;;;;;-5.47;95.08;100921.84;5027502;28;20246;-57
2021/12/25 08:21:53;;;;;;;3.97;2.67;;;;;;;-5.43;94.65;100928.91;5028748;28;20271;-56
2021/12/25 08:24:20;;;;;;;7.93;4.00;;;;;;;-5.37;94.57;100933.53;5026412;28;20241;-56
2021/12/25 08:26:48;;;;;;;6.90;3.87;;;;;;;-5.29;94.26;100933.28;5027164;28;20286;-58
2021/12/25 08:29:15;;;;;;;6.37;3.83;;;;;;;-5.38;94.62;100931.78;5026947;28;20748;-57
2021/12/25 08:31:41;;;;;;;9.87;5.37;;;;;;;-5.47;95.20;100937.19;5027098;28;20230;-58
2021/12/25 08:34:10;;;;;;;6.23;4.53;;;;;;;-5.50;95.99;100947.22;5020946;28;20253;-56
2021/12/25 08:36:37;;;;;;;7.80;4.90;;;;;;;-5.52;96.73;100948.75;5026633;28;20311;-59
2021/12/25 08:39:05;;;;;;;7.37;4.40;;;;;;;-5.48;96.83;100940.50;5026124;28;20234;-57
2021/12/25 08:41:32;;;;;;;7.80;3.87;;;;;;;-5.43;96.84;100945.94;5027058;28;20596;-56
2021/12/25 08:44:05;;;;;;;6.30;3.80;;;;;;;-5.34;95.53;100951.66;5027624;28;20287;-55
2021/12/25 08:46:44;;;;;;;5.97;4.17;;;;;;;-5.24;94.91;100956.59;5023591;28;20245;-61
2021/12/25 08:49:15;;;;;;;3.70;3.30;;;;;;;-5.20;94.26;100950.00;5026602;28;20234;-57
2021/12/25 08:51:42;;;;;;;5.60;3.63;;;;;;;-5.17;94.60;100953.63;5027567;28;20616;-57
2021/12/25 08:54:09;;;;;;;5.47;3.93;;;;;;;-5.14;94.54;100960.63;5026021;28;20293;-56
2021/12/25 08:56:35;;;;;;;5.80;3.37;;;;;;;-5.05;94.38;100959.56;5026744;28;20265;-57
2021/12/25 08:59:01;;;;;;;4.50;3.30;;;;;;;-5.01;93.95;100968.34;5026623;28;20266;-60
2021/12/25 09:01:28;;;;;;;7.00;4.83;;;;;;;-4.90;93.56;100964.78;5026569;28;20811;-58
2021/12/25 09:03:56;;;;;;;2.97;2.67;;;;;;;-4.90;93.17;100963.91;5026697;28;20723;-58
2021/12/25 09:06:25;;;;;;;3.90;2.90;;;;;;;-4.89;93.15;100963.09;5026237;28;20242;-58
2021/12/25 09:08:52;;;;;;;4.87;2.63;;;;;;;-4.81;93.79;100967.03;5026102;28;20323;-57
2021/12/25 09:11:20;;;;;;;3.43;2.30;;;;;;;-4.89;92.26;100973.34;5026159;28;20241;-58
2021/12/25 09:13:47;;;;;;;2.50;1.73;;;;;;;-4.78;93.03;100971.47;5026891;28;20237;-58
2021/12/25 09:16:13;;;;;;;3.07;1.50;;;;;;;-4.71;92.37;100977.09;5026576;28;20677;-58
2021/12/25 09:18:39;;;;;;;1.70;1.60;;;;;;;-4.62;91.58;100981.94;5027367;28;20254;-56
2021/12/25 09:21:06;;;;;;;1.50;1.40;;;;;;;-4.62;92.02;100987.94;5028676;28;20348;-58
2021/12/25 09:23:33;;;;;;;3.23;2.20;;;;;;;-4.71;91.42;100978.75;5026053;28;20332;-56
2021/12/25 09:26:00;;;;;;;3.10;2.20;;;;;;;-4.62;91.94;100981.94;5026452;28;20293;-56
2021/12/25 09:28:26;;;;;;;2.80;1.73;;;;;;;-4.61;91.79;100973.44;5025123;28;20266;-58
2021/12/25 09:30:52;;;;;;;4.63;1.23;;;;;;;-4.57;91.45;100971.16;5026701;28;20270;-58
2021/12/25 09:33:19;;;;;;;2.60;1.83;;;;;;;-4.60;91.09;100981.25;5026090;28;20388;-58
2021/12/25 09:35:45;;;;;;;1.60;1.50;;;;;;;-4.50;90.75;100992.94;5026699;28;20725;-57
2021/12/25 09:38:11;;;;;;;2.97;1.80;;;;;;;-4.46;90.65;100984.63;5025778;28;20242;-61
2021/12/25 09:40:39;;;;;;;3.53;1.63;;;;;;;-4.35;90.66;100983.66;5026601;28;20234;-58
2021/12/25 09:43:06;;;;;;;3.63;1.20;;;;;;;-4.16;89.71;100984.81;5025953;28;20272;-58
2021/12/25 09:45:32;;;;;;;2.50;1.20;;;;;;;-4.13;88.21;100977.31;5025987;28;20394;-56
2021/12/25 09:47:58;;;;;;;2.03;1.30;;;;;;;-4.12;88.45;100976.50;5025885;28;20316;-57
2021/12/25 09:50:25;;;;;;;2.33;1.80;;;;;;;-4.12;89.33;100979.06;5025673;28;20239;-54
2021/12/25 09:52:51;;;;;;;2.70;2.30;;;;;;;-4.13;89.65;100991.00;5025676;28;20285;-58
2021/12/25 09:55:19;;;;;;;5.50;3.43;;;;;;;-4.08;89.27;100992.16;5020320;28;20329;-58
2021/12/25 09:57:47;;;;;;;7.10;4.63;;;;;;;-4.03;89.57;101001.84;5025496;28;20661;-55
2021/12/25 10:00:15;;;;;;;7.50;4.07;;;;;;;-4.00;90.80;101000.34;5020151;28;20269;-58
2021/12/25 10:02:44;;;;;;;4.63;2.00;;;;;;;-3.92;90.28;100999.13;5025622;28;20235;-58
2021/12/25 10:05:11;;;;;;;2.10;1.90;;;;;;;-3.76;89.19;100994.91;5025278;28;20246;-57
2021/12/25 10:07:37;;;;;;;4.10;2.43;;;;;;;-3.76;89.14;101000.03;5026004;28;20707;-57
2021/12/25 10:10:07;;;;;;;4.10;2.20;;;;;;;-3.65;88.24;100996.44;5025384;28;20266;-54
2021/12/25 10:12:38;;;;;;;4.90;2.07;;;;;;;-3.57;87.74;100995.25;5025855;28;20325;-59
2021/12/25 10:15:08;;;;;;;3.67;2.03;;;;;;;-3.57;87.59;100991.78;5018295;28;20254;-56
2021/12/25 10:17:34;;;;;;;2.90;2.03;;;;;;;-3.59;88.48;100996.81;5025255;28;20304;-55
2021/12/25 10:20:07;;;;;;;3.73;2.23;;;;;;;-3.53;88.05;100992.06;5025490;28;20263;-57
2021/12/25 10:22:34;;;;;;;2.53;2.33;;;;;;;-3.28;84.58;100983.22;5023754;28;20237;-57
2021/12/25 10:25:07;;;;;;;3.33;2.60;;;;;;;-3.48;84.32;100988.06;5024922;28;20238;-55
2021/12/25 10:27:35;;;;;;;2.47;2.23;;;;;;;-3.61;85.30;100988.16;5024658;28;20732;-57
2021/12/25 10:30:07;;;;;;;1.87;1.67;;;;;;;-3.55;86.54;100998.75;5025862;28;20270;-57
2021/12/25 10:32:38;;;;;;;4.93;2.60;;;;;;;-3.58;86.84;100993.44;5024405;28;20712;-55
2021/12/25 10:35:13;;;;;;;3.07;2.00;;;;;;;-3.57;87.25;100984.09;5024478;28;20272;-56
2021/12/25 10:37:40;;;;;;;4.87;2.00;;;;;;;-3.51;87.02;100994.69;5025537;28;20328;-57
2021/12/25 10:40:18;;;;;;;2.93;2.43;;;;;;;-3.49;86.66;100988.00;5025388;28;20239;-58
2021/12/25 10:42:45;;;;;;;3.47;2.23;;;;;;;-3.46;86.61;100993.31;5026156;28;20236;-55
2021/12/25 10:45:15;;;;;;;7.67;2.10;;;;;;;-3.40;85.20;100978.28;5027934;28;20292;-55
2021/12/25 10:47:41;;;;;;;2.33;1.73;;;;;;;-3.30;84.33;100978.03;5030296;28;20634;-56
2021/12/25 10:50:11;;;;;;;1.73;1.63;;;;;;;-3.19;82.00;100986.34;5030776;28;20478;-56
2021/12/25 10:52:41;;;;;;;4.93;1.97;;;;;;;-3.13;82.51;100981.53;5029793;28;20727;-56
2021/12/25 10:55:16;;;;;;;2.00;1.80;;;;;;;-3.09;81.92;100983.47;5028507;28;20330;-57
2021/12/25 10:57:44;;;;;;;4.33;1.70;;;;;;;-3.05;81.66;100987.13;5030593;28;20792;-55
2021/12/25 11:00:14;;;;;;;6.10;2.00;;;;;;;-2.96;80.72;100987.66;5027234;28;20297;-57
2021/12/25 11:02:43;;;;;;;8.10;2.00;;;;;;;-2.90;79.90;100988.88;5026689;28;20256;-55
2021/12/25 11:05:18;;;;;;;3.17;1.67;;;;;;;-2.93;80.00;100983.56;5026678;28;20235;-56
2021/12/25 11:07:45;;;;;;;2.17;1.70;;;;;;;-2.92;80.40;100980.19;5027627;28;20315;-57
2021/12/25 11:10:14;;;;;;;2.67;1.70;;;;;;;-2.85;80.12;100984.00;5028514;28;20263;-55
2021/12/25 11:12:41;;;;;;;2.93;1.53;;;;;;;-2.89;79.24;100982.94;5028863;28;20460;-55
2021/12/25 11:15:10;;;;;;;2.43;1.90;;;;;;;-2.80;78.37;100974.88;5027452;28;20259;-57
2021/12/25 11:17:39;;;;;;;2.00;1.60;;;;;;;-2.76;78.40;100975.94;5026238;28;20243;-55
2021/12/25 11:20:16;;;;;;;1.97;1.37;;;;;;;-2.74;77.17;100984.59;5025840;28;20255;-56
2021/12/25 11:22:49;;;;;;;1.63;1.40;;;;;;;-2.73;76.95;100981.25;5026731;28;20234;-57
2021/12/25 11:25:16;;;;;;;2.70;1.70;;;;;;;-2.72;76.87;100973.63;5024994;28;20526;-56
2021/12/25 11:27:43;;;;;;;2.53;1.43;;;;;;;-2.56;77.32;100975.38;5026438;28;20318;-54
2021/12/25 11:30:10;;;;;;;1.50;1.40;;;;;;;-2.56;77.13;100987.31;5026877;28;20265;-56
2021/12/25 11:32:37;;;;;;;2.90;1.80;;;;;;;-2.44;74.97;100990.59;5027509;28;20258;-56
2021/12/25 11:35:04;;;;;;;3.67;1.67;;;;;;;-2.42;74.74;100989.88;5026537;28;20230;-58
2021/12/25 11:37:31;;;;;;;1.67;1.57;;;;;;;-2.44;75.71;100988.91;5028359;28;20297;-57
2021/12/25 11:39:58;;;;;;;1.23;0.80;;;;;;;-2.41;74.11;100985.63;5026549;28;20227;-55
2021/12/25 11:42:27;;;;;;;1.70;1.43;;;;;;;-2.42;74.33;100984.72;5025245;28;20263;-56
2021/12/25 11:44:55;;;;;;;3.90;1.70;;;;;;;-2.49;74.54;100992.00;5020164;28;20854;-55
2021/12/25 11:47:33;;;;;;;2.27;1.43;;;;;;;-2.49;75.02;100990.34;5028449;28;20234;-56
2021/12/25 11:50:03;;;;;;;1.57;1.30;;;;;;;-2.48;75.09;100978.38;5022885;28;20246;-57
2021/12/25 11:52:37;;;;;;;3.63;1.53;;;;;;;-2.41;74.70;100980.47;5029652;28;20607;-55
2021/12/25 11:55:49;;;;;;;1.90;1.57;;;;;;;-2.42;74.77;100983.84;5027025;28;20513;-55
2021/12/25 11:58:37;;;;;;;1.23;1.10;;;;;;;-2.35;73.80;100979.91;5022408;28;20230;-58
2021/12/25 12:01:16;;;;;;;4.37;2.13;;;;;;;-2.30;73.56;100978.47;5020654;28;20221;-57
2021/12/25 12:03:46;;;;;;;1.60;1.50;;;;;;;-2.25;72.88;100977.91;5028684;28;20233;-56
2021/12/25 12:06:14;;;;;;;2.30;1.80;;;;;;;-2.26;72.37;100983.88;5027831;28;20239;-55
2021/12/25 12:09:06;;;;;;;3.90;2.00;;;;;;;-2.38;73.00;100977.19;5027534;28;20288;-57
2021/12/25 12:11:33;;;;;;;1.73;1.43;;;;;;;-2.35;72.44;100979.91;5027106;28;20232;-54
2021/12/25 12:14:17;;;;;;;2.47;1.83;;;;;;;-2.22;73.42;100974.63;5028542;28;20270;-58
2021/12/25 12:16:45;;;;;;;3.33;1.97;;;;;;;-2.12;74.23;100974.31;5027308;28;20325;-57
2021/12/25 12:19:41;;;;;;;3.70;1.70;;;;;;;-2.13;74.36;100976.84;5026557;28;20250;-57
2021/12/25 12:22:50;;;;;;;2.37;1.80;;;;;;;-2.21;74.59;100981.53;5025282;28;20232;-56
2021/12/25 12:25:26;;;;;;;1.73;1.63;;;;;;;-2.14;75.02;100978.53;5021868;28;20236;-56